Time;durP1;ratioP1;P1;durP2;ratioP2;P2;SDS_P1;SDS_P2;PMS_P1;PMS_P2;Temp;Humidity;BMP_temperature;BMP_pressure;BME280_temperature;BME280_humidity;BME280_pressure;Samples;Min_cycle;Max_cycle;Signal;HPM_P1;HPM_P2
2022/01/03 00:07:50;;;;;;;19.88;3.13;;;;;;;10.04;100.00;100896.22;2610174;54;20038;-59
2022/01/03 00:15:15;;;;;;;13.82;3.33;;;;;;;9.97;100.00;100898.56;2611996;54;20075;-60
2022/01/03 00:20:28;;;;;;;16.48;3.08;;;;;;;10.04;100.00;100898.91;2608510;54;20047;-58
2022/01/03 00:22:59;;;;;;;20.55;3.28;;;;;;;10.02;100.00;100903.56;2608895;54;20045;-59
2022/01/03 00:28:17;;;;;;;17.00;3.70;;;;;;;9.94;100.00;100898.00;2612904;46;20047;-59
2022/01/03 00:30:52;;;;;;;16.48;3.15;;;;;;;9.91;100.00;100899.09;2613258;54;20055;-59
2022/01/03 00:36:14;;;;;;;22.05;3.17;;;;;;;9.73;100.00;100917.66;2608700;54;20058;-59
2022/01/03 00:38:50;;;;;;;15.45;2.97;;;;;;;9.69;100.00;100910.81;2610746;54;20035;-60
2022/01/03 00:41:19;;;;;;;14.85;3.00;;;;;;;9.63;100.00;100927.47;2612941;39;20421;-59
2022/01/03 00:43:48;;;;;;;12.93;2.55;;;;;;;9.71;100.00;100908.00;2613660;54;20167;-58
2022/01/03 00:46:20;;;;;;;18.42;2.95;;;;;;;9.68;100.00;100913.63;2613037;54;20035;-59
2022/01/03 00:48:48;;;;;;;15.52;3.17;;;;;;;9.65;100.00;100920.13;2614320;54;20054;-59
2022/01/03 00:51:19;;;;;;;16.40;2.97;;;;;;;9.68;100.00;100916.31;2613300;54;20131;-59
2022/01/03 00:53:49;;;;;;;15.82;3.33;;;;;;;9.67;100.00;100926.19;2613532;54;20039;-60
2022/01/03 00:56:21;;;;;;;23.80;3.92;;;;;;;9.53;100.00;100916.63;2614022;54;20042;-60
2022/01/03 00:58:56;;;;;;;14.98;3.45;;;;;;;9.50;100.00;100910.66;2614469;54;20167;-59
2022/01/03 01:01:28;;;;;;;13.73;3.35;;;;;;;9.49;100.00;100931.28;2613636;54;20089;-58
2022/01/03 01:03:58;;;;;;;19.10;3.75;;;;;;;9.47;100.00;100926.03;2613774;54;21344;-59
2022/01/03 01:06:27;;;;;;;22.20;3.97;;;;;;;9.41;100.00;100918.50;2613587;54;20618;-58
2022/01/03 01:08:58;;;;;;;19.88;3.95;;;;;;;9.39;100.00;100927.66;2613513;54;20035;-59
2022/01/03 01:11:29;;;;;;;20.25;2.97;;;;;;;9.33;100.00;100926.31;2613911;47;20114;-58
2022/01/03 01:16:42;;;;;;;16.17;3.08;;;;;;;9.21;100.00;100932.72;2615046;54;20065;-60
2022/01/03 01:19:12;;;;;;;22.67;3.13;;;;;;;9.21;100.00;100930.03;2613570;54;20122;-59
2022/01/03 01:21:44;;;;;;;15.70;3.45;;;;;;;9.24;100.00;100944.03;2613929;54;20047;-58
2022/01/03 01:24:12;;;;;;;16.58;3.13;;;;;;;9.24;100.00;100948.56;2613846;54;20037;-60
2022/01/03 01:29:21;;;;;;;21.70;3.45;;;;;;;9.25;100.00;100944.91;2613195;54;20038;-59
2022/01/03 01:31:56;;;;;;;21.88;4.05;;;;;;;9.20;100.00;100936.38;2614101;54;21783;-58
2022/01/03 01:34:28;;;;;;;22.77;3.30;;;;;;;9.17;100.00;100953.59;2614528;54;20158;-60
2022/01/03 01:36:59;;;;;;;17.50;3.70;;;;;;;9.18;100.00;100949.06;2614825;54;20174;-59
2022/01/03 01:39:30;;;;;;;14.40;3.20;;;;;;;9.20;100.00;100955.16;2614450;39;20511;-59
2022/01/03 01:42:00;;;;;;;23.83;3.40;;;;;;;9.16;100.00;100945.66;2613253;54;20074;-58
2022/01/03 01:44:45;;;;;;;16.38;3.00;;;;;;;9.20;100.00;100947.13;2614286;54;20049;-59
2022/01/03 01:50:12;;;;;;;21.48;4.13;;;;;;;9.29;100.00;100941.00;2614512;54;20034;-58
2022/01/03 01:52:41;;;;;;;24.50;4.07;;;;;;;9.27;100.00;100948.31;2614935;54;20163;-59
2022/01/03 01:55:16;;;;;;;24.35;3.95;;;;;;;9.27;100.00;100942.94;2613899;54;20154;-58
2022/01/03 01:57:56;;;;;;;23.38;3.95;;;;;;;9.31;100.00;100947.09;2614839;54;20049;-60
2022/01/03 02:00:25;;;;;;;22.80;3.70;;;;;;;9.28;100.00;100945.50;2614791;54;20053;-59
2022/01/03 02:05:40;;;;;;;25.30;4.18;;;;;;;9.34;100.00;100943.31;2614149;39;20463;-59
2022/01/03 02:08:17;;;;;;;20.50;3.35;;;;;;;9.33;100.00;100947.81;2614306;54;20578;-59
2022/01/03 02:10:52;;;;;;;18.88;3.13;;;;;;;9.22;100.00;100934.44;2614241;47;20098;-59
2022/01/03 02:13:22;;;;;;;22.67;4.00;;;;;;;9.17;100.00;100958.09;2614713;54;20034;-60
2022/01/03 02:15:58;;;;;;;18.73;3.40;;;;;;;9.16;100.00;100959.06;2613303;54;20053;-59
2022/01/03 02:18:26;;;;;;;22.92;4.55;;;;;;;9.09;100.00;100956.06;2614043;54;20042;-59
2022/01/03 02:20:57;;;;;;;16.33;3.60;;;;;;;9.09;100.00;100961.41;2614122;54;20155;-60
2022/01/03 02:25:58;;;;;;;18.30;3.85;;;;;;;9.08;100.00;100963.25;2616522;46;20023;-59
2022/01/03 02:28:26;;;;;;;25.05;4.07;;;;;;;9.11;100.00;100960.31;2615137;47;20159;-59
2022/01/03 02:30:55;;;;;;;22.17;4.45;;;;;;;9.13;100.00;100960.19;2614727;54;20156;-58
2022/01/03 02:36:00;;;;;;;29.20;5.65;;;;;;;9.02;100.00;100950.31;2615688;47;20490;-59
2022/01/03 02:38:29;;;;;;;22.65;2.88;;;;;;;9.03;100.00;100946.66;2614661;54;20030;-59
2022/01/03 02:43:45;;;;;;;26.40;3.97;;;;;;;9.10;100.00;100966.66;2614971;39;20463;-59
2022/01/03 02:46:14;;;;;;;20.25;4.00;;;;;;;9.17;100.00;100947.38;2614092;39;20676;-59
2022/01/03 02:48:42;;;;;;;21.75;4.50;;;;;;;9.15;100.00;100960.91;2615236;54;20562;-58
2022/01/03 02:51:13;;;;;;;24.90;4.05;;;;;;;9.09;100.00;100951.53;2613577;54;20158;-59
2022/01/03 02:56:20;;;;;;;26.83;4.15;;;;;;;9.17;100.00;100955.41;2614372;54;20042;-59
2022/01/03 03:01:19;;;;;;;21.40;4.10;;;;;;;9.23;100.00;100952.22;2614218;54;20061;-59
2022/01/03 03:06:30;;;;;;;19.27;3.58;;;;;;;9.21;100.00;100954.19;2613374;54;20050;-58
2022/01/03 03:08:58;;;;;;;19.30;3.55;;;;;;;9.26;100.00;100955.53;2615364;54;20081;-60
2022/01/03 03:11:28;;;;;;;23.35;4.43;;;;;;;9.25;100.00;100961.03;2614125;54;20161;-59
2022/01/03 03:13:57;;;;;;;22.55;5.20;;;;;;;9.27;100.00;100965.28;2614604;47;20146;-58
2022/01/03 03:19:11;;;;;;;28.13;4.82;;;;;;;9.19;100.00;100957.00;2614993;39;20509;-60
2022/01/03 03:24:17;;;;;;;24.77;4.47;;;;;;;9.16;100.00;100953.69;2612363;54;20532;-58
2022/01/03 03:26:45;;;;;;;23.70;4.95;;;;;;;9.25;100.00;100961.03;2614689;54;20054;-60
2022/01/03 03:29:13;;;;;;;22.83;4.68;;;;;;;9.23;100.00;100960.28;2614733;39;20523;-59
2022/01/03 03:31:42;;;;;;;24.63;4.30;;;;;;;9.29;100.00;100965.19;2614566;39;20549;-58
2022/01/03 03:34:14;;;;;;;28.45;4.38;;;;;;;9.29;100.00;100983.97;2615109;49;20139;-60
2022/01/03 03:36:42;;;;;;;29.83;4.47;;;;;;;9.31;100.00;100965.91;2614734;54;20134;-59
2022/01/03 03:39:31;;;;;;;34.78;5.07;;;;;;;9.27;100.00;100969.81;2615974;39;20544;-59
2022/01/03 03:42:02;;;;;;;23.15;4.50;;;;;;;9.24;100.00;100968.22;2615254;54;20042;-59
2022/01/03 03:44:30;;;;;;;27.13;4.85;;;;;;;9.31;100.00;100970.44;2614654;54;20122;-59
2022/01/03 03:47:00;;;;;;;30.42;4.38;;;;;;;9.38;100.00;100966.22;2612765;54;20022;-59
2022/01/03 03:49:28;;;;;;;31.38;4.35;;;;;;;9.41;100.00;100966.84;2615157;54;20038;-61
2022/01/03 03:54:42;;;;;;;31.25;5.07;;;;;;;9.31;100.00;100957.84;2615386;54;20045;-60
2022/01/03 03:59:54;;;;;;;23.65;5.20;;;;;;;9.20;100.00;100965.91;2615313;54;20044;-59
2022/01/03 04:02:23;;;;;;;36.90;4.70;;;;;;;9.24;100.00;100959.31;2614496;54;20034;-60
2022/01/03 04:04:51;;;;;;;26.52;4.28;;;;;;;9.20;100.00;100963.22;2613215;54;20040;-60
2022/01/03 04:07:21;;;;;;;20.67;5.05;;;;;;;9.18;100.00;100959.81;2615946;39;20435;-59
2022/01/03 04:09:49;;;;;;;26.77;5.45;;;;;;;9.14;100.00;100963.72;2614250;54;21946;-59
2022/01/03 04:12:35;;;;;;;30.23;5.47;;;;;;;9.20;100.00;100949.78;2616057;54;20054;-59
2022/01/03 04:15:08;;;;;;;26.85;4.82;;;;;;;9.19;100.00;100956.16;2613725;54;20082;-59
2022/01/03 04:17:36;;;;;;;28.08;4.47;;;;;;;9.15;100.00;100966.28;2614159;54;20067;-59
2022/01/03 04:20:06;;;;;;;34.72;4.82;;;;;;;9.17;100.00;100958.97;2614723;47;20125;-60
2022/01/03 04:22:34;;;;;;;33.60;5.45;;;;;;;9.22;100.00;100955.91;2613681;47;20155;-58
2022/01/03 04:25:02;;;;;;;26.30;4.63;;;;;;;9.24;100.00;100957.47;2614625;54;20046;-59
2022/01/03 04:30:14;;;;;;;22.60;4.82;;;;;;;9.29;100.00;100949.91;2614350;54;20067;-59
2022/01/03 04:32:43;;;;;;;26.60;4.63;;;;;;;9.26;100.00;100946.59;2613971;54;20031;-60
2022/01/03 04:35:11;;;;;;;27.13;5.20;;;;;;;9.25;100.00;100939.56;2614400;54;20142;-59
2022/01/03 04:40:26;;;;;;;27.10;5.05;;;;;;;9.13;100.00;100949.47;2612871;54;20054;-60
2022/01/03 04:42:55;;;;;;;30.98;5.53;;;;;;;9.14;100.00;100939.56;2615431;31;20500;-59
2022/01/03 04:47:54;;;;;;;31.45;5.82;;;;;;;9.16;100.00;100940.28;2617015;46;20038;-59
2022/01/03 04:50:22;;;;;;;25.13;5.47;;;;;;;9.15;100.00;100933.22;2614556;54;20130;-59
2022/01/03 04:52:51;;;;;;;35.15;5.20;;;;;;;9.15;100.00;100944.81;2614840;47;20114;-61
2022/01/03 04:55:19;;;;;;;35.53;4.82;;;;;;;9.11;100.00;100938.84;2613947;47;20029;-59
2022/01/03 04:57:50;;;;;;;27.60;4.40;;;;;;;9.19;100.00;100945.44;2613461;54;20175;-59
2022/01/03 05:00:19;;;;;;;25.35;4.65;;;;;;;9.20;100.00;100936.38;2613271;54;20030;-59
2022/01/03 05:02:48;;;;;;;40.58;6.57;;;;;;;9.20;100.00;100936.38;2614261;54;20157;-59
2022/01/03 05:08:14;;;;;;;35.42;5.60;;;;;;;9.25;100.00;100936.88;2614789;54;20060;-59
2022/01/03 05:10:42;;;;;;;34.65;5.72;;;;;;;9.24;100.00;100940.50;2615101;54;20046;-60
2022/01/03 05:13:10;;;;;;;43.38;6.97;;;;;;;9.27;100.00;100933.03;2614637;54;20199;-60
2022/01/03 05:15:51;;;;;;;28.40;5.65;;;;;;;9.38;100.00;100942.06;2615350;54;20117;-59
2022/01/03 05:18:20;;;;;;;34.05;5.40;;;;;;;9.37;100.00;100927.78;2615135;54;20043;-59
2022/01/03 05:20:48;;;;;;;33.95;5.57;;;;;;;9.40;100.00;100924.84;2613492;54;20056;-58
2022/01/03 05:23:19;;;;;;;42.17;6.77;;;;;;;9.31;100.00;100928.28;2614764;54;20137;-59
2022/01/03 05:25:47;;;;;;;30.13;6.85;;;;;;;9.26;100.00;100928.69;2614269;54;20447;-58
2022/01/03 05:28:16;;;;;;;39.22;5.78;;;;;;;9.23;100.00;100922.69;2614359;54;20109;-60
2022/01/03 05:30:46;;;;;;;33.97;6.32;;;;;;;9.13;100.00;100919.94;2614729;47;20039;-59
2022/01/03 05:38:37;;;;;;;36.47;6.68;;;;;;;9.15;100.00;100917.09;2614571;54;20054;-59
2022/01/03 05:41:05;;;;;;;38.83;5.75;;;;;;;9.19;100.00;100913.19;2615065;54;20069;-60
2022/01/03 05:43:40;;;;;;;39.55;6.60;;;;;;;9.18;100.00;100919.53;2614361;54;20042;-60
2022/01/03 05:46:08;;;;;;;43.83;8.00;;;;;;;9.20;100.00;100915.75;2615178;54;20663;-60
2022/01/03 05:48:36;;;;;;;35.03;6.20;;;;;;;9.20;100.00;100915.75;2615116;54;20090;-60
2022/01/03 05:51:04;;;;;;;32.65;5.28;;;;;;;9.26;100.00;100909.00;2614353;54;20034;-59
2022/01/03 05:53:33;;;;;;;32.63;5.60;;;;;;;9.32;100.00;100903.16;2615473;47;20156;-59
2022/01/03 05:56:04;;;;;;;38.33;6.00;;;;;;;9.31;100.00;100906.81;2613655;54;20034;-59
2022/01/03 05:58:38;;;;;;;32.50;6.93;;;;;;;9.37;100.00;100905.44;2614458;54;20166;-60
2022/01/03 06:01:06;;;;;;;32.65;5.55;;;;;;;9.37;100.00;100906.28;2613592;54;20027;-59
2022/01/03 06:03:38;;;;;;;25.23;4.97;;;;;;;9.45;100.00;100902.97;2613103;54;20089;-59
2022/01/03 06:06:31;;;;;;;42.03;5.78;;;;;;;9.47;100.00;100901.88;2614057;54;20641;-59
2022/01/03 06:14:55;;;;;;;29.60;5.65;;;;;;;9.58;100.00;100879.47;2614022;54;19938;-59
2022/01/03 06:17:23;;;;;;;33.42;6.00;;;;;;;9.59;100.00;100883.84;2615556;39;20449;-59
2022/01/03 06:19:52;;;;;;;33.50;6.17;;;;;;;9.62;100.00;100890.81;2614834;54;20135;-59
2022/01/03 06:22:20;;;;;;;39.67;7.15;;;;;;;9.69;100.00;100875.00;2614018;39;20793;-59
2022/01/03 06:24:49;;;;;;;45.47;6.70;;;;;;;9.71;100.00;100871.22;2614834;47;20118;-58
2022/01/03 06:27:17;;;;;;;28.20;6.10;;;;;;;9.70;100.00;100874.91;2613801;47;20179;-59
2022/01/03 06:29:46;;;;;;;30.88;6.03;;;;;;;9.76;100.00;100863.63;2614624;54;20023;-59
2022/01/03 06:35:11;;;;;;;27.08;4.38;;;;;;;9.62;100.00;100878.22;2613501;54;20022;-59
2022/01/03 06:40:13;;;;;;;35.58;5.72;;;;;;;9.64;100.00;100870.91;2613400;54;20034;-60
2022/01/03 06:42:41;;;;;;;31.38;5.22;;;;;;;9.58;100.00;100870.56;2612422;54;20141;-58
2022/01/03 06:45:10;;;;;;;29.75;5.68;;;;;;;9.56;100.00;100877.91;2612739;54;20073;-59
2022/01/03 06:47:38;;;;;;;;;;;;;;;9.61;100.00;100865.78;2613063;54;20161;-60
2022/01/03 06:50:11;;;;;;;34.97;6.32;;;;;;;9.63;100.00;100861.13;2613232;54;20074;-59
2022/01/03 06:52:40;;;;;;;30.60;6.20;;;;;;;9.64;100.00;100853.91;2613618;54;20134;-59
2022/01/03 06:55:10;;;;;;;43.45;7.13;;;;;;;9.65;100.00;100863.69;2613204;54;20194;-60
2022/01/03 06:57:38;;;;;;;34.17;5.65;;;;;;;9.62;100.00;100864.78;2613377;54;20022;-59
2022/01/03 07:00:11;;;;;;;39.88;5.95;;;;;;;9.64;100.00;100859.28;2613543;54;20038;-59
2022/01/03 07:02:42;;;;;;;33.45;5.05;;;;;;;9.65;100.00;100856.47;2614704;31;20504;-60
2022/01/03 07:05:14;;;;;;;33.88;5.43;;;;;;;9.65;100.00;100866.38;2611389;54;20570;-60
2022/01/03 07:07:43;;;;;;;30.85;5.35;;;;;;;9.59;100.00;100853.47;2611545;54;20173;-59
2022/01/03 07:10:14;;;;;;;33.30;6.03;;;;;;;9.58;100.00;100860.66;2612412;54;20151;-60
2022/01/03 07:12:43;;;;;;;27.63;5.35;;;;;;;9.53;100.00;100853.97;2613606;54;20035;-60
2022/01/03 07:20:36;;;;;;;27.70;5.25;;;;;;;9.62;100.00;100867.47;2613351;54;20063;-60
2022/01/03 07:23:04;;;;;;;32.60;5.78;;;;;;;9.61;100.00;100859.53;2613403;46;20061;-60
2022/01/03 07:28:13;;;;;;;23.55;4.72;;;;;;;9.72;100.00;100866.72;2613961;54;20034;-59
2022/01/03 07:30:42;;;;;;;34.60;5.70;;;;;;;9.73;100.00;100858.53;2614345;54;20657;-60
2022/01/03 07:33:19;;;;;;;27.45;5.70;;;;;;;9.68;100.00;100870.63;2615896;54;20078;31
2022/01/03 07:35:50;;;;;;;18.05;4.05;;;;;;;9.68;100.00;100866.09;2613804;54;20038;-59
2022/01/03 07:38:25;;;;;;;30.95;5.50;;;;;;;9.70;100.00;100858.78;2614576;54;20026;-60
2022/01/03 07:40:53;;;;;;;27.35;4.97;;;;;;;9.71;100.00;100848.88;2615286;54;20164;-59
2022/01/03 07:43:21;;;;;;;30.75;5.47;;;;;;;9.71;100.00;100860.47;2615585;47;20185;-59
2022/01/03 07:45:49;;;;;;;27.40;5.35;;;;;;;9.64;100.00;100864.66;2613493;54;20031;-59
2022/01/03 07:51:06;;;;;;;31.80;4.70;;;;;;;9.70;100.00;100852.53;2613659;54;20073;-58
2022/01/03 07:53:35;;;;;;;35.17;5.57;;;;;;;9.67;100.00;100853.63;2614628;53;20171;-59
2022/01/03 07:56:04;;;;;;;23.17;4.25;;;;;;;9.65;100.00;100852.94;2615216;54;20087;-58
2022/01/03 08:03:56;;;;;;;32.47;4.93;;;;;;;9.68;100.00;100870.63;2611667;54;20056;-60
2022/01/03 08:09:13;;;;;;;25.85;4.75;;;;;;;9.75;100.00;100875.34;2613794;54;20040;-59
2022/01/03 08:11:41;;;;;;;29.00;5.38;;;;;;;9.67;100.00;100875.13;2613468;54;20061;-60
2022/01/03 08:14:10;;;;;;;27.95;4.30;;;;;;;9.69;100.00;100881.25;2613024;54;20034;-59
2022/01/03 08:16:38;;;;;;;29.33;5.17;;;;;;;9.64;100.00;100873.59;2611249;54;20057;-59
2022/01/03 08:21:32;;;;;;;27.15;5.35;;;;;;;9.62;100.00;100875.53;2612239;47;20038;-59
2022/01/03 08:24:01;;;;;;;27.17;4.85;;;;;;;9.64;100.00;100872.72;2612140;47;20299;-60
2022/01/03 08:29:20;;;;;;;27.92;4.53;;;;;;;9.72;100.00;100883.69;2614463;54;20066;-60
2022/01/03 08:31:49;;;;;;;27.25;5.95;;;;;;;9.70;100.00;100874.91;2614618;54;20122;-59
2022/01/03 08:34:17;;;;;;;27.15;4.25;;;;;;;9.76;100.00;100865.44;2612930;54;20118;-59
2022/01/03 08:36:46;;;;;;;25.52;4.75;;;;;;;9.75;100.00;100867.28;2613237;54;20037;-59
2022/01/03 08:39:14;;;;;;;24.53;4.90;;;;;;;9.79;100.00;100873.25;2613461;54;20204;-59
2022/01/03 08:44:25;;;;;;;27.73;5.28;;;;;;;9.82;100.00;100868.47;2612153;54;20038;-59
2022/01/03 08:46:54;;;;;;;30.83;5.28;;;;;;;9.78;100.00;100872.41;2614140;46;20126;-59
2022/01/03 08:49:22;;;;;;;24.25;4.35;;;;;;;9.79;100.00;100871.44;2613331;54;20105;-60
2022/01/03 08:51:50;;;;;;;23.83;4.55;;;;;;;9.75;100.00;100861.91;2614370;54;20638;-58
2022/01/03 08:54:19;;;;;;;29.58;4.95;;;;;;;9.72;100.00;100882.84;2614553;54;20178;-59
2022/01/03 08:56:47;;;;;;;33.80;5.73;;;;;;;9.76;100.00;100868.13;2613597;54;20179;-60
2022/01/03 08:59:15;;;;;;;24.75;5.10;;;;;;;9.67;100.00;100877.81;2614926;39;20445;-58
2022/01/03 09:01:47;;;;;;;27.85;4.43;;;;;;;9.69;100.00;100873.19;2613389;54;20174;-60
2022/01/03 09:04:15;;;;;;;28.20;4.90;;;;;;;9.72;100.00;100881.00;2605429;54;54743;-59
2022/01/03 09:06:57;;;;;;;32.00;5.10;;;;;;;9.81;100.00;100869.44;2607905;54;20063;-59
2022/01/03 09:09:27;;;;;;;21.90;4.07;;;;;;;9.86;100.00;100870.91;2614927;54;20319;-58
2022/01/03 09:11:56;;;;;;;29.52;4.78;;;;;;;9.76;100.00;100865.44;2614215;54;20059;-59
2022/01/03 09:19:53;;;;;;;36.40;5.28;;;;;;;9.88;100.00;100874.28;2613983;54;20053;-58
2022/01/03 09:22:28;;;;;;;24.08;4.40;;;;;;;9.88;100.00;100860.84;2613220;54;20062;-59
2022/01/03 09:28:49;;;;;;;30.13;5.45;;;;;;;9.87;100.00;100869.94;2614563;54;20065;-58
2022/01/03 09:38:19;;;;;;;20.38;4.28;;;;;;;9.97;100.00;100870.84;2614017;54;20374;-59
2022/01/03 09:48:51;;;;;;;27.60;4.43;;;;;;;10.16;100.00;100867.41;2614289;54;20050;-59
2022/01/03 09:51:20;;;;;;;26.35;5.30;;;;;;;10.18;100.00;100862.75;2613084;47;20035;-60
2022/01/03 09:53:52;;;;;;;25.98;5.38;;;;;;;10.02;100.00;100873.97;2613540;47;20126;-59
2022/01/03 09:56:22;;;;;;;23.13;5.05;;;;;;;9.98;100.00;100864.47;2613550;47;20035;-59
2022/01/03 09:58:51;;;;;;;22.33;5.20;;;;;;;9.98;100.00;100856.38;2613760;54;20630;-59
2022/01/03 10:01:22;;;;;;;23.08;5.28;;;;;;;9.94;100.00;100865.72;2614087;54;20101;-60
2022/01/03 10:03:50;;;;;;;33.90;5.30;;;;;;;10.01;100.00;100861.50;2613531;54;20130;-58
2022/01/03 10:12:01;;;;;;;24.70;4.07;;;;;;;9.90;100.00;100857.06;2612282;54;20026;-59
2022/01/03 10:14:29;;;;;;;30.25;5.25;;;;;;;9.88;100.00;100858.16;2614092;54;20125;-61
2022/01/03 10:16:58;;;;;;;26.50;5.15;;;;;;;9.90;100.00;100858.91;2606886;54;20118;-59
2022/01/03 10:24:57;;;;;;;24.80;5.10;;;;;;;10.24;100.00;100858.66;2614995;54;20177;-58
2022/01/03 10:35:29;;;;;;;28.55;4.97;;;;;;;10.22;100.00;100847.19;2611732;54;20118;-60
2022/01/03 10:40:33;;;;;;;21.27;5.00;;;;;;;10.21;100.00;100846.34;2613118;54;20047;-58
2022/01/03 10:43:19;;;;;;;30.75;5.07;;;;;;;10.30;100.00;100842.00;2605194;54;55257;-59
2022/01/03 10:45:50;;;;;;;28.35;5.80;;;;;;;10.41;100.00;100838.38;2614675;54;20065;-59
2022/01/03 10:53:44;;;;;;;21.13;5.30;;;;;;;10.64;100.00;100836.34;2615519;54;20053;-60
2022/01/03 11:02:10;;;;;;;34.72;5.57;;;;;;;10.80;100.00;100846.59;2615183;54;20045;-59
2022/01/03 11:04:46;;;;;;;27.55;5.05;;;;;;;10.68;100.00;100837.78;2614372;54;20059;-59
2022/01/03 11:13:10;;;;;;;31.40;5.63;;;;;;;10.64;100.00;100823.72;2613807;39;20427;-59
2022/01/03 11:15:39;;;;;;;27.73;5.38;;;;;;;10.56;100.00;100820.88;2616369;31;20692;-59
2022/01/03 11:18:12;;;;;;;28.95;5.47;;;;;;;10.59;100.00;100819.75;2614801;54;20041;-59
2022/01/03 11:20:41;;;;;;;25.35;5.00;;;;;;;10.69;100.00;100815.25;2614604;54;20137;-60
2022/01/03 11:23:09;;;;;;;30.33;5.00;;;;;;;10.93;100.00;100805.94;2614602;54;20126;-60
2022/01/03 11:25:40;;;;;;;18.85;4.70;;;;;;;10.95;100.00;100793.19;2615094;54;20061;-60
2022/01/03 11:28:08;;;;;;;29.33;5.45;;;;;;;10.83;100.00;100809.44;2614693;54;20035;-59
2022/01/03 11:30:38;;;;;;;27.02;4.88;;;;;;;10.92;100.00;100796.16;2615862;54;20113;-60
2022/01/03 11:33:08;;;;;;;;;;;;;;;10.77;100.00;100796.56;2615349;54;20126;-58
2022/01/03 11:35:37;;;;;;;30.30;5.25;;;;;;;10.95;100.00;100787.78;2614683;46;19997;-59
2022/01/03 11:38:09;;;;;;;33.33;5.75;;;;;;;10.97;100.00;100783.97;2610406;47;20098;-59
2022/01/03 11:40:40;;;;;;;19.90;4.30;;;;;;;10.91;100.00;100786.38;2614605;54;20129;-58
2022/01/03 11:43:09;;;;;;;20.38;4.45;;;;;;;10.96;100.00;100776.03;2610789;54;20178;-60
2022/01/03 11:45:38;;;;;;;31.92;5.78;;;;;;;11.18;100.00;100774.91;2615694;31;20560;-59
2022/01/03 11:48:09;;;;;;;31.45;5.85;;;;;;;11.12;100.00;100770.09;2615078;54;20118;-60
2022/01/03 11:50:38;;;;;;;24.25;4.78;;;;;;;11.01;100.00;100774.63;2615824;54;20050;-59
2022/01/03 11:53:07;;;;;;;23.35;4.43;;;;;;;11.10;100.00;100780.16;2613293;39;20530;-61
2022/01/03 11:55:37;;;;;;;25.73;4.20;;;;;;;10.89;100.00;100772.19;2615839;54;20104;-59
2022/01/03 11:58:27;;;;;;;25.30;5.15;;;;;;;10.81;100.00;100768.38;2615985;54;20041;-60
2022/01/03 12:03:52;;;;;;;26.00;5.50;;;;;;;10.86;100.00;100760.75;2613020;54;20034;-60
2022/01/03 12:06:32;;;;;;;;;;;;;;;10.90;100.00;100755.06;2614383;54;20053;-59
2022/01/03 12:09:00;;;;;;;;;;;;;;;10.95;100.00;100755.47;2613864;54;19942;-60
2022/01/03 12:11:31;;;;;;;23.33;4.50;;;;;;;10.90;100.00;100739.75;2613577;54;19947;-59
2022/01/03 12:14:11;;;;;;;27.25;5.25;;;;;;;10.81;100.00;100746.00;2614573;54;20126;-59
2022/01/03 12:16:50;;;;;;;30.58;5.47;;;;;;;10.89;100.00;100729.13;2613872;54;20039;-59
2022/01/03 12:19:35;;;;;;;23.77;5.30;;;;;;;11.11;100.00;100726.13;2613822;47;20490;-60
2022/01/03 12:22:17;;;;;;;27.52;4.47;;;;;;;11.18;100.00;100729.94;2613275;54;20555;-59
2022/01/03 12:24:54;;;;;;;35.63;5.32;;;;;;;11.20;100.00;100727.13;2613428;54;20062;-60
2022/01/03 12:27:24;;;;;;;25.13;4.00;;;;;;;11.08;100.00;100726.41;2612551;47;20038;-59
2022/01/03 12:30:25;;;;;;;28.42;5.28;;;;;;;11.20;100.00;100719.91;2614851;54;20050;-60
2022/01/03 12:33:25;;;;;;;26.60;4.78;;;;;;;11.08;100.00;100721.03;2614356;54;20035;-59
2022/01/03 12:36:19;;;;;;;25.80;4.80;;;;;;;11.28;100.00;100726.38;2614282;39;20433;-59
2022/01/03 12:39:06;;;;;;;25.42;4.57;;;;;;;11.43;100.00;100718.72;2613763;47;20054;-59
2022/01/03 12:41:47;;;;;;;23.08;4.07;;;;;;;11.45;100.00;100722.97;2614130;47;20519;-58
2022/01/03 12:44:50;;;;;;;32.63;5.45;;;;;;;11.41;100.00;100716.19;2615347;54;20038;-59
2022/01/03 12:47:22;;;;;;;27.50;5.35;;;;;;;11.46;100.00;100721.97;2614859;47;20029;-59
2022/01/03 12:50:25;;;;;;;30.67;5.80;;;;;;;11.22;100.00;100704.44;2614873;54;20042;-59
2022/01/03 12:52:54;;;;;;;25.05;4.60;;;;;;;11.39;100.00;100712.75;2606079;39;20463;-58
2022/01/03 12:55:50;;;;;;;25.13;5.13;;;;;;;11.22;100.00;100706.28;2609010;54;20057;-60
2022/01/03 12:58:40;;;;;;;25.17;5.05;;;;;;;11.26;100.00;100699.59;2614068;54;20042;-60
2022/01/03 13:01:23;;;;;;;24.33;4.97;;;;;;;11.04;100.00;100693.56;2614392;47;20077;-59
2022/01/03 13:03:55;;;;;;;25.70;5.47;;;;;;;11.27;100.00;100678.91;2613900;54;20078;-58
2022/01/03 13:06:28;;;;;;;32.05;4.80;;;;;;;11.19;100.00;100685.88;2613763;47;20122;-59
2022/01/03 13:09:11;;;;;;;24.70;4.90;;;;;;;11.24;100.00;100679.22;2613628;54;20038;-58
2022/01/03 13:11:43;;;;;;;24.73;5.72;;;;;;;10.95;100.00;100675.53;2614919;54;20041;-59
2022/01/03 13:14:15;;;;;;;23.83;4.78;;;;;;;10.90;100.00;100666.22;2614128;54;20038;-58
2022/01/03 13:16:45;;;;;;;19.90;4.60;;;;;;;10.88;100.00;100669.06;2612949;47;20057;-58
2022/01/03 13:19:18;;;;;;;30.00;5.45;;;;;;;10.74;100.00;100659.53;2614087;47;20030;-59
2022/01/03 13:21:50;;;;;;;22.73;4.93;;;;;;;10.59;100.00;100650.22;2614220;54;20041;-58
2022/01/03 13:24:20;;;;;;;20.35;4.70;;;;;;;10.71;100.00;100654.44;2614917;54;20214;-60
2022/01/03 13:27:04;;;;;;;21.98;4.88;;;;;;;10.86;100.00;100652.16;2613150;54;20126;-59
2022/01/03 13:29:38;;;;;;;25.58;4.95;;;;;;;10.73;100.00;100652.44;2613851;54;20090;-59
2022/01/03 13:32:08;;;;;;;28.75;5.10;;;;;;;10.80;100.00;100658.13;2613953;52;20033;-59
2022/01/03 13:34:39;;;;;;;25.38;5.05;;;;;;;10.72;100.00;100650.78;2611981;54;20022;-59
2022/01/03 13:37:10;;;;;;;22.27;4.60;;;;;;;10.60;100.00;100651.88;2613816;54;20125;-59
2022/01/03 13:39:40;;;;;;;17.70;4.13;;;;;;;10.40;100.00;100646.50;2613213;47;20051;-60
2022/01/03 13:42:11;;;;;;;21.55;3.95;;;;;;;10.37;100.00;100646.78;2615277;49;20126;-58
2022/01/03 13:50:17;;;;;;;17.25;3.80;;;;;;;10.17;100.00;100656.63;2615538;54;20069;-59
2022/01/03 13:52:47;;;;;;;18.10;3.53;;;;;;;10.17;100.00;100646.75;2615292;54;20114;-60
2022/01/03 13:55:18;;;;;;;19.88;3.83;;;;;;;10.20;100.00;100644.75;2608728;54;20050;-60
2022/01/03 13:57:47;;;;;;;19.33;3.80;;;;;;;10.12;100.00;100648.13;2613399;49;20030;-60
2022/01/03 14:00:18;;;;;;;;;;;;;;;10.10;100.00;100644.72;2614397;54;20081;-59
2022/01/03 14:02:47;;;;;;;22.40;4.15;;;;;;;10.06;100.00;100646.00;2608449;54;20030;-59
2022/01/03 14:05:20;;;;;;;;;;;;;;;10.13;100.00;100642.63;2612819;54;20079;-60
2022/01/03 14:07:56;;;;;;;23.20;4.72;;;;;;;9.99;100.00;100640.31;2612779;54;20069;-60
2022/01/03 14:10:39;;;;;;;19.40;3.60;;;;;;;9.91;100.00;100645.53;2614103;54;20186;-59
2022/01/03 14:13:09;;;;;;;19.63;4.53;;;;;;;9.91;100.00;100645.53;2614794;31;20625;-60
2022/01/03 14:15:37;;;;;;;24.23;3.72;;;;;;;9.78;100.00;100641.25;2611915;46;20206;-60
2022/01/03 14:18:06;;;;;;;17.48;4.22;;;;;;;9.78;100.00;100643.94;2612653;54;20034;-60
2022/01/03 14:20:37;;;;;;;23.52;4.68;;;;;;;9.68;100.00;100639.53;2613405;47;20042;-59
2022/01/03 14:23:17;;;;;;;17.98;4.00;;;;;;;9.66;100.00;100642.34;2610977;47;20054;-60
2022/01/03 14:25:45;;;;;;;18.23;3.95;;;;;;;9.59;100.00;100636.66;2613916;54;20086;-59
2022/01/03 14:28:14;;;;;;;20.48;4.20;;;;;;;9.69;100.00;100636.69;2613237;54;20066;-58
2022/01/03 14:30:43;;;;;;;17.08;4.30;;;;;;;9.70;100.00;100640.22;2613182;54;20134;-60
2022/01/03 14:33:11;;;;;;;19.10;4.18;;;;;;;9.73;100.00;100646.19;2612869;47;20566;-59
2022/01/03 14:35:44;;;;;;;22.90;4.05;;;;;;;9.67;100.00;100637.81;2611990;54;20036;-60
2022/01/03 14:38:13;;;;;;;24.30;4.85;;;;;;;9.61;100.00;100637.38;2611787;54;20035;-60
2022/01/03 14:40:44;;;;;;;18.30;4.32;;;;;;;9.65;100.00;100640.63;2611341;54;20194;-59